Nanortalik

KL  EN  DA
ASIAQ
Weather Now GREENLAND SURVEY
Updated [WGT/WGST] Temperature [°C] Wind [m/s] Air pressure [hPa] Relative humidity [%] Precipitation [mm]
Present Wind chill Speed Max
30.11 16:00-0,6-3,52,3 ⇓4,5989981,3
30.11 15:00-0,8-4,93,6 ⇓6,0988960,4
30.11 14:000,7-4,55,8 ⇓11,5987740,0
30.11 13:00-0,2-5,75,9 ⇓8,5986870,0
30.11 12:000,2-5,36,4 ⇓8,6986810,0
30.11 11:00-0,6-5,85,3 ⇓8,5987950,0
30.11 10:00-0,9-5,84,6 ⇓6,1988990,0
30.11 09:00-1,2-5,94,3 ⇓6,9989980,0
30.11 08:00-1,2-7,56,9 ⇓8,6989990,0
30.11 07:00-1,2-7,46,9 ⇓9,0990990,0
30.11 06:00-1,2-6,96,0 ⇓8,6991990,0
30.11 05:00-0,9-6,86,4 ⇓7,5992990,2
30.11 04:00-1,4-7,05,6 ⇓7,1993980,2
30.11 03:00-1,6-7,46,0 ⇓9,0995950,0
30.11 02:00-1,6-8,37,6 ⇓10,3996870,0
30.11 01:00-2,0-8,87,7 ⇙10,4999910,0
30.11 00:00-0,5-5,24,5 ⇙8,01001640,0
29.11 23:00-1,2-6,45,1 ⇓7,51004730,5
29.11 22:00-1,0-6,14,9 ⇓8,51006611,0
29.11 21:00-1,8-5,42,7 ⇓3,61008691,0
29.11 20:00-2,1-4,51,7 ⇓2,61009750,0
29.11 19:00-2,3-4,11,3 ⇘3,01010730,0
29.11 18:00-2,8-6,02,3 ⇓5,01011770,0
29.11 17:00-2,8-6,82,9 ⇙4,91011790,0
29.11 16:00-2,8-6,42,6 ⇙4,01012760,0
Position: (60.14111111,-45.23444444)

[Back]